Cardiff, New York
Current Conditions -  °F | °C
As of 2:54 PM on Sunday 25 Jan 2015 (Local Time) from KSYR Reporting Station
Broken Clouds Broken Clouds  
Wind Chill:   Ceiling: 20000
Heat Index: 17°   Visibility: 10mi
Dew Point:   Wind: 12mph
Humidity: 65%   Direction: 300°WNW
Pressure: 29.93"   Gusts: NA
Location:  42.8894°N, 76.1084°W
Report Text: KSYR 251954Z 30010KT 10SM FEW028 BKN200 M08/M14 A2993 RMK AO2 SLP139 T10831139 $
Loading
Personal Weather Stations






























Interactive Weather Map New forecast layout! Learn more

10-Day Weather Forecast

Advertisements
Track Severe Weather on mobile